Time;durP1;ratioP1;P1;durP2;ratioP2;P2;SDS_P1;SDS_P2;PMS_P1;PMS_P2;Temp;Humidity;BMP_temperature;BMP_pressure;BME280_temperature;BME280_humidity;BME280_pressure;Samples;Min_cycle;Max_cycle;Signal;HPM_P1;HPM_P2
2022/12/14 00:03:08;;;;;;;16.55;6.20;;;0.20;99.90;;;;;;10115932;28;20029;-67
2022/12/14 00:07:58;;;;;;;13.45;6.40;;;0.10;99.90;;;;;;10106791;28;20534;-67
2022/12/14 00:12:49;;;;;;;11.05;5.20;;;0.00;99.90;;;;;;10137169;28;20028;-68
2022/12/14 00:17:40;;;;;;;11.93;4.82;;;0.00;99.90;;;;;;10130452;28;20452;-66
2022/12/14 00:22:30;;;;;;;11.77;5.15;;;0.00;99.90;;;;;;10130305;28;20028;-67
2022/12/14 00:27:21;;;;;;;13.15;6.20;;;-0.10;99.90;;;;;;10126169;28;20032;-67
2022/12/14 00:32:11;;;;;;;13.35;5.13;;;-0.10;99.90;;;;;;10116488;28;20347;-66
2022/12/14 00:37:02;;;;;;;10.80;5.45;;;-0.10;99.90;;;;;;10122530;28;20490;-62
2022/12/14 00:41:53;;;;;;;12.70;6.00;;;-0.10;99.90;;;;;;10131091;28;20421;-68
2022/12/14 00:46:43;;;;;;;9.85;5.18;;;0.00;99.90;;;;;;10131815;28;20031;-68
2022/12/14 00:51:34;;;;;;;10.57;5.75;;;0.00;99.90;;;;;;10126836;28;20471;-69
2022/12/14 00:56:25;;;;;;;12.05;5.00;;;0.00;99.90;;;;;;10117364;28;20041;-69
2022/12/14 01:01:16;;;;;;;11.65;5.05;;;0.10;99.90;;;;;;10120440;28;20028;-67
2022/12/14 01:06:16;;;;;;;11.13;5.43;;;0.00;99.90;;;;;;10111778;28;20119;-69
2022/12/14 01:11:08;;;;;;;14.23;6.07;;;0.00;99.90;;;;;;10130938;28;20478;-67
2022/12/14 01:16:02;;;;;;;9.90;5.22;;;0.10;99.90;;;;;;10136105;28;20072;-67
2022/12/14 01:20:53;;;;;;;17.58;5.97;;;0.20;99.90;;;;;;10132094;28;20032;-66
2022/12/14 01:25:43;;;;;;;12.68;5.60;;;0.20;99.90;;;;;;10130370;28;20029;-69
2022/12/14 01:30:37;;;;;;;11.25;5.93;;;0.10;99.90;;;;;;10120311;28;20016;-67
2022/12/14 01:35:28;;;;;;;13.45;5.75;;;0.20;99.90;;;;;;10119943;28;20119;-63
2022/12/14 01:40:18;;;;;;;14.48;5.72;;;0.20;99.90;;;;;;10140740;28;20457;-63
2022/12/14 01:45:20;;;;;;;13.07;6.38;;;0.20;99.90;;;;;;10130254;28;20060;-68
2022/12/14 01:50:32;;;;;;;11.80;5.53;;;0.10;99.90;;;;;;10124236;28;20021;-65
2022/12/14 01:55:34;;;;;;;11.45;5.82;;;0.10;99.90;;;;;;10128209;28;20055;-63
2022/12/14 02:00:25;;;;;;;16.63;5.90;;;0.20;99.90;;;;;;10113132;28;20047;-63
2022/12/14 02:05:18;;;;;;;15.82;5.32;;;0.20;99.90;;;;;;10124843;28;20566;-66
2022/12/14 02:10:10;;;;;;;14.63;5.88;;;0.20;99.90;;;;;;10132278;28;20028;-67
2022/12/14 02:15:02;;;;;;;14.88;5.55;;;0.10;99.90;;;;;;10139973;28;20131;-67
2022/12/14 02:19:52;;;;;;;13.20;5.10;;;0.20;99.90;;;;;;10142713;28;20479;-66
2022/12/14 02:25:08;;;;;;;11.55;5.72;;;-0.10;99.90;;;;;;10134345;28;20036;-67
2022/12/14 02:30:09;;;;;;;12.13;5.05;;;-0.10;99.90;;;;;;10106368;28;20523;-67
2022/12/14 02:35:32;;;;;;;13.77;5.85;;;-0.20;99.90;;;;;;10116710;28;20032;-67
2022/12/14 02:40:37;;;;;;;9.90;5.50;;;0.00;99.90;;;;;;10071612;28;20033;-67
2022/12/14 02:46:15;;;;;;;12.65;5.97;;;-0.10;99.90;;;;;;10134227;28;20347;-69
2022/12/14 02:51:24;;;;;;;13.82;6.07;;;-0.20;99.90;;;;;;10051708;28;20037;-69
2022/12/14 02:56:22;;;;;;;12.10;5.43;;;-0.20;99.90;;;;;;10115338;28;20426;-69
2022/12/14 03:01:15;;;;;;;15.60;5.72;;;-0.30;99.90;;;;;;10114473;28;20456;-68
2022/12/14 03:06:25;;;;;;;13.80;5.82;;;-0.20;99.90;;;;;;10115011;28;20017;-69
2022/12/14 03:11:21;;;;;;;11.80;5.25;;;0.00;99.90;;;;;;10137249;28;20060;-68
2022/12/14 03:16:43;;;;;;;14.63;6.25;;;0.10;99.90;;;;;;10119023;28;20044;-68
2022/12/14 03:21:38;;;;;;;16.05;6.55;;;0.00;99.90;;;;;;10121765;28;20507;-71
2022/12/14 03:26:33;;;;;;;12.07;6.05;;;-0.10;99.90;;;;;;10140491;28;20276;-65
2022/12/14 03:31:35;;;;;;;14.70;5.40;;;0.00;99.90;;;;;;10140353;28;20035;-63
2022/12/14 03:36:33;;;;;;;14.25;5.35;;;0.00;99.90;;;;;;10139901;28;20221;-65
2022/12/14 03:41:36;;;;;;;11.68;6.53;;;0.00;99.90;;;;;;10132383;28;20025;-67
2022/12/14 03:46:42;;;;;;;19.90;7.50;;;0.10;99.90;;;;;;10137218;28;20020;-66
2022/12/14 03:51:49;;;;;;;10.95;6.65;;;0.10;99.90;;;;;;10133803;28;20025;-66
2022/12/14 03:56:48;;;;;;;13.73;5.53;;;0.10;99.90;;;;;;10133900;28;20048;-67
2022/12/14 04:01:54;;;;;;;13.98;6.53;;;0.10;99.90;;;;;;10138059;28;20028;-68
2022/12/14 04:06:58;;;;;;;14.87;5.53;;;0.10;99.90;;;;;;10121549;28;20048;-68
2022/12/14 04:22:47;;;;;;;17.02;5.85;;;0.00;99.90;;;;;;10137119;28;20069;-68
2022/12/14 04:27:43;;;;;;;18.92;7.80;;;0.00;99.90;;;;;;10138433;28;20024;-67
2022/12/14 04:32:55;;;;;;;9.40;5.75;;;0.20;99.90;;;;;;10138756;28;20498;-65
2022/12/14 04:38:05;;;;;;;10.85;6.07;;;0.10;99.90;;;;;;10138450;28;20028;-68
2022/12/14 04:43:04;;;;;;;18.08;6.10;;;0.20;99.90;;;;;;10137298;28;20043;-68
2022/12/14 04:48:34;;;;;;;16.75;6.82;;;0.30;99.90;;;;;;10137699;28;20033;-68
2022/12/14 04:53:27;;;;;;;13.95;6.32;;;0.30;99.90;;;;;;10129873;28;20051;-68
2022/12/14 04:58:27;;;;;;;12.00;6.22;;;0.20;99.90;;;;;;10113227;28;20121;-68
2022/12/14 05:03:32;;;;;;;15.20;5.50;;;0.10;99.90;;;;;;10137220;28;20033;-68
2022/12/14 05:08:54;;;;;;;15.05;7.10;;;0.20;99.90;;;;;;10124154;28;20033;-70
2022/12/14 05:13:48;;;;;;;15.82;7.07;;;0.20;99.90;;;;;;10136251;28;20154;-68
2022/12/14 05:18:39;;;;;;;13.77;6.47;;;0.10;99.90;;;;;;10137191;28;20482;-68
2022/12/14 05:23:29;;;;;;;15.00;6.80;;;0.20;99.90;;;;;;10137484;28;20021;-68
2022/12/14 05:28:20;;;;;;;11.98;5.32;;;0.30;99.90;;;;;;10136462;28;20032;-69
2022/12/14 05:33:18;;;;;;;17.08;6.65;;;0.20;99.90;;;;;;10136153;28;20048;-67
2022/12/14 05:38:09;;;;;;;13.23;5.97;;;-0.10;99.90;;;;;;10137202;28;20032;-69
2022/12/14 05:43:07;;;;;;;13.15;6.07;;;-0.10;99.90;;;;;;10136428;28;20021;-68
2022/12/14 05:47:57;;;;;;;16.55;7.00;;;-0.20;99.90;;;;;;10133339;28;20041;-68
2022/12/14 05:52:51;;;;;;;16.58;6.03;;;-0.10;99.90;;;;;;10107708;28;20032;-67
2022/12/14 05:57:41;;;;;;;16.55;7.40;;;-0.20;99.90;;;;;;10119792;28;20180;-67
2022/12/14 06:02:32;;;;;;;15.00;6.15;;;-0.20;99.90;;;;;;10133495;28;20553;-68
2022/12/14 06:07:22;;;;;;;12.05;5.55;;;-0.30;99.90;;;;;;10143071;28;20080;-68
2022/12/14 06:12:14;;;;;;;15.95;6.40;;;-0.30;99.90;;;;;;10143217;28;20045;-67
2022/12/14 06:17:05;;;;;;;14.50;6.80;;;-0.20;99.90;;;;;;10142527;28;20051;-68
2022/12/14 06:21:55;;;;;;;16.17;6.50;;;-0.20;99.90;;;;;;10143569;28;20029;-68
2022/12/14 06:26:46;;;;;;;16.35;6.68;;;-0.10;99.90;;;;;;10143567;28;20063;-66
2022/12/14 06:31:37;;;;;;;11.65;5.47;;;0.10;99.90;;;;;;10145005;28;20440;-68
2022/12/14 06:36:33;;;;;;;11.85;5.47;;;0.10;99.90;;;;;;10141573;28;20290;-69
2022/12/14 06:41:24;;;;;;;12.07;6.53;;;0.00;99.90;;;;;;10133895;28;20420;-68
2022/12/14 06:46:16;;;;;;;14.15;6.38;;;0.10;99.90;;;;;;10123470;28;20346;-68
2022/12/14 06:51:07;;;;;;;11.40;5.78;;;0.10;99.90;;;;;;10123264;28;20021;-67
2022/12/14 06:56:17;;;;;;;13.88;6.18;;;0.20;99.90;;;;;;10139445;28;20510;-65
2022/12/14 07:01:14;;;;;;;13.82;5.10;;;0.10;99.90;;;;;;10122538;28;20016;-68
2022/12/14 07:06:05;;;;;;;13.60;5.78;;;0.10;99.90;;;;;;10140822;28;20063;-68
2022/12/14 07:10:59;;;;;;;17.50;6.50;;;0.20;99.90;;;;;;10141564;28;20016;-67
2022/12/14 07:15:52;;;;;;;12.68;5.63;;;0.30;99.90;;;;;;10140557;28;20040;-68
2022/12/14 07:20:43;;;;;;;13.57;6.63;;;0.40;99.90;;;;;;10139816;28;20028;-70
2022/12/14 07:25:34;;;;;;;11.35;5.43;;;0.40;99.90;;;;;;10140687;28;20056;-68
2022/12/14 07:30:24;;;;;;;13.63;6.75;;;0.40;99.90;;;;;;10141916;28;20020;-68
2022/12/14 07:35:15;;;;;;;14.48;6.03;;;0.40;99.90;;;;;;10139298;28;20040;-64
2022/12/14 07:40:07;;;;;;;13.07;5.72;;;0.40;99.90;;;;;;10133614;28;20557;-67
2022/12/14 07:44:59;;;;;;;14.93;5.18;;;0.30;99.90;;;;;;10118439;28;20370;-67
2022/12/14 07:49:50;;;;;;;15.10;5.97;;;0.40;99.90;;;;;;10137158;28;20032;-65
2022/12/14 07:54:41;;;;;;;10.02;5.57;;;0.30;99.90;;;;;;10135320;28;20044;-64
2022/12/14 07:59:33;;;;;;;9.23;4.97;;;0.20;99.90;;;;;;10137719;28;20542;-67
2022/12/14 08:04:23;;;;;;;13.88;6.07;;;0.30;99.90;;;;;;10126624;28;20074;-62
2022/12/14 08:09:15;;;;;;;11.40;5.15;;;0.30;99.90;;;;;;10117531;28;20465;-60
2022/12/14 08:14:12;;;;;;;13.75;5.63;;;0.20;99.90;;;;;;10136235;28;20036;-62
2022/12/14 08:19:03;;;;;;;14.00;4.72;;;0.40;99.90;;;;;;10149180;28;20103;-66
2022/12/14 08:23:55;;;;;;;10.43;4.80;;;0.40;99.90;;;;;;10139494;28;20124;-63
2022/12/14 08:28:45;;;;;;;12.52;5.82;;;0.30;99.90;;;;;;10139236;28;20387;-64
2022/12/14 08:33:37;;;;;;;13.10;5.70;;;0.30;99.90;;;;;;10137397;28;20039;-64
2022/12/14 08:38:28;;;;;;;15.68;6.38;;;0.30;99.90;;;;;;10134553;28;20325;-64
2022/12/14 08:43:18;;;;;;;13.00;5.53;;;0.30;99.90;;;;;;10138601;28;20104;-64
2022/12/14 08:48:09;;;;;;;14.13;5.38;;;0.30;99.90;;;;;;10137375;28;20025;-66
2022/12/14 08:52:59;;;;;;;19.38;6.82;;;0.40;99.90;;;;;;10135610;28;20125;-69
2022/12/14 08:57:50;;;;;;;11.68;6.05;;;0.50;99.90;;;;;;10135223;28;20044;-67
2022/12/14 09:02:41;;;;;;;12.50;6.53;;;0.50;99.90;;;;;;10135270;28;20568;-66
2022/12/14 09:07:31;;;;;;;14.95;6.18;;;0.50;99.90;;;;;;10132337;28;20020;-63
2022/12/14 09:12:22;;;;;;;13.20;5.90;;;0.50;99.90;;;;;;10117460;28;20352;-64
2022/12/14 09:17:13;;;;;;;10.05;5.20;;;0.50;99.90;;;;;;10136098;28;20256;-64
2022/12/14 09:22:04;;;;;;;12.30;6.13;;;0.70;99.90;;;;;;10136374;28;20223;-63
2022/12/14 09:26:59;;;;;;;13.88;5.57;;;0.70;99.90;;;;;;10118482;28;20165;-67
2022/12/14 09:31:49;;;;;;;14.05;7.47;;;0.60;99.90;;;;;;10133105;28;20028;-64
2022/12/14 09:36:41;;;;;;;12.95;6.40;;;0.50;99.90;;;;;;10135439;28;20044;-67
2022/12/14 09:41:47;;;;;;;12.98;5.90;;;0.50;99.90;;;;;;10130905;28;20477;-66
2022/12/14 09:47:00;;;;;;;12.55;5.75;;;0.40;99.90;;;;;;10119024;28;20024;-65
2022/12/14 09:51:54;;;;;;;13.75;5.82;;;0.40;99.90;;;;;;10137802;28;20086;-67
2022/12/14 09:56:45;;;;;;;15.50;6.60;;;0.40;99.90;;;;;;10133774;28;20532;-69
2022/12/14 10:01:49;;;;;;;14.30;6.90;;;0.60;99.90;;;;;;10141640;28;20044;-68
2022/12/14 10:07:01;;;;;;;14.13;5.97;;;0.60;99.90;;;;;;10141801;28;20031;-68
2022/12/14 10:12:07;;;;;;;12.77;6.18;;;0.60;99.90;;;;;;10142362;28;20012;-69
2022/12/14 10:17:31;;;;;;;15.32;7.00;;;0.50;99.90;;;;;;10145095;28;20046;-66
2022/12/14 10:22:29;;;;;;;16.38;6.05;;;0.30;99.90;;;;;;10142610;28;20020;-65
2022/12/14 10:27:22;;;;;;;11.20;5.80;;;0.30;99.90;;;;;;10136714;28;20063;-69
2022/12/14 10:32:24;;;;;;;16.40;6.68;;;0.20;99.90;;;;;;10142190;28;20021;-65
2022/12/14 10:37:28;;;;;;;22.40;7.47;;;0.30;99.90;;;;;;10140014;28;20047;-64
2022/12/14 10:42:34;;;;;;;16.70;7.15;;;0.30;99.90;;;;;;10139448;28;20397;-64
2022/12/14 10:47:46;;;;;;;14.10;6.73;;;0.30;99.90;;;;;;10136435;28;20119;-66
2022/12/14 10:52:40;;;;;;;17.08;8.20;;;0.30;99.90;;;;;;10113857;28;20087;-62
2022/12/14 10:57:31;;;;;;;11.77;6.15;;;0.30;99.90;;;;;;10139641;28;20125;-62
2022/12/14 11:02:26;;;;;;;16.60;7.15;;;0.40;99.90;;;;;;10137084;28;20025;-63
2022/12/14 11:07:23;;;;;;;17.42;7.40;;;0.40;99.90;;;;;;10135850;28;20020;-64
2022/12/14 11:12:26;;;;;;;14.55;7.30;;;0.60;99.90;;;;;;10119138;28;20498;-62
2022/12/14 11:17:40;;;;;;;14.48;6.47;;;0.60;99.90;;;;;;10139022;28;20060;-63
2022/12/14 11:22:50;;;;;;;14.30;6.63;;;0.70;99.90;;;;;;10136127;28;20302;-62
2022/12/14 11:27:40;;;;;;;14.98;6.55;;;0.60;99.90;;;;;;10138709;28;20036;-62
2022/12/14 11:32:31;;;;;;;21.40;10.38;;;0.50;99.90;;;;;;10139347;28;20036;-62
2022/12/14 11:37:30;;;;;;;15.77;7.88;;;0.70;99.90;;;;;;10139998;28;20387;-66
2022/12/14 11:42:22;;;;;;;20.00;8.20;;;0.80;99.90;;;;;;10139554;28;20032;-65
2022/12/14 11:47:15;;;;;;;13.85;6.25;;;0.90;99.90;;;;;;10136702;28;20027;-64
2022/12/14 11:52:09;;;;;;;16.02;7.05;;;0.90;99.90;;;;;;10119794;28;20116;-68
2022/12/14 11:57:23;;;;;;;18.50;7.82;;;1.00;99.90;;;;;;10131512;28;20045;-67
2022/12/14 12:02:21;;;;;;;15.85;7.68;;;0.80;99.90;;;;;;10134032;28;20429;-72
2022/12/14 12:07:51;;;;;;;14.50;7.50;;;1.00;99.90;;;;;;10135062;28;20051;-69
2022/12/14 12:13:31;;;;;;;16.08;7.78;;;1.00;99.90;;;;;;10104772;28;20036;-73
2022/12/14 12:18:45;;;;;;;15.88;7.60;;;1.00;99.90;;;;;;10108821;28;20041;-70
2022/12/14 12:23:52;;;;;;;14.05;6.97;;;0.90;99.90;;;;;;10134561;28;20519;-69
2022/12/14 12:28:51;;;;;;;16.08;7.47;;;0.70;99.90;;;;;;10138692;28;20020;-66
2022/12/14 12:33:56;;;;;;;19.13;8.85;;;0.80;99.90;;;;;;10139208;28;20390;-69
2022/12/14 12:39:05;;;;;;;14.88;7.43;;;0.90;99.90;;;;;;10131631;28;20060;-69
2022/12/14 12:44:13;;;;;;;18.88;7.82;;;1.10;99.90;;;;;;10108130;28;20162;-70
2022/12/14 12:49:10;;;;;;;16.58;7.65;;;1.10;99.90;;;;;;10131030;28;20035;-68
2022/12/14 12:54:07;;;;;;;17.20;7.15;;;1.00;99.90;;;;;;10113511;28;20024;-70
2022/12/14 12:58:59;;;;;;;14.88;7.13;;;0.90;99.90;;;;;;10106742;28;20505;-69
2022/12/14 13:03:54;;;;;;;13.23;6.65;;;1.00;99.90;;;;;;10119389;28;20116;-70
2022/12/14 13:08:50;;;;;;;14.77;6.47;;;1.00;99.90;;;;;;10132030;28;20037;-70
2022/12/14 13:13:47;;;;;;;16.17;7.00;;;0.90;99.90;;;;;;10139164;28;20320;-67
2022/12/14 13:18:44;;;;;;;11.73;6.43;;;1.00;99.90;;;;;;10120301;28;20029;-69
2022/12/14 13:23:35;;;;;;;17.77;7.13;;;0.90;99.90;;;;;;10143213;28;20124;-69
2022/12/14 13:28:41;;;;;;;17.83;7.82;;;1.10;99.90;;;;;;10144448;28;20029;-64
2022/12/14 13:34:09;;;;;;;21.80;7.50;;;1.30;99.90;;;;;;10126875;28;20024;-71
2022/12/14 13:39:32;;;;;;;18.58;7.95;;;1.10;99.90;;;;;;10144218;28;20028;-68
2022/12/14 13:44:48;;;;;;;21.73;8.07;;;1.20;99.90;;;;;;10122139;28;20024;-72
2022/12/14 13:49:38;;;;;;;20.58;7.80;;;1.30;99.90;;;;;;10130825;28;20032;-71
2022/12/14 13:54:31;;;;;;;14.57;7.13;;;1.50;99.90;;;;;;10142153;28;20433;-71
2022/12/14 13:59:31;;;;;;;12.50;6.50;;;1.40;99.90;;;;;;10139990;28;20548;-68
2022/12/14 14:04:30;;;;;;;18.38;6.75;;;1.30;99.90;;;;;;10136044;28;20154;-64
2022/12/14 14:09:29;;;;;;;15.18;6.35;;;1.30;99.90;;;;;;10142129;28;20090;-65
2022/12/14 14:14:57;;;;;;;21.38;8.02;;;1.10;99.90;;;;;;10138244;28;20036;-62
2022/12/14 14:19:50;;;;;;;16.17;6.38;;;1.10;99.90;;;;;;10047100;28;20032;-66
2022/12/14 14:24:58;;;;;;;17.85;7.20;;;1.00;99.90;;;;;;10134516;28;20486;-66
2022/12/14 14:29:50;;;;;;;15.90;6.57;;;1.00;99.90;;;;;;10123341;28;20017;-67
2022/12/14 14:34:41;;;;;;;17.75;6.97;;;0.90;99.90;;;;;;10124390;28;20044;-66
2022/12/14 14:39:35;;;;;;;14.02;7.28;;;1.00;99.90;;;;;;10125898;28;20060;-69
2022/12/14 14:44:42;;;;;;;19.70;8.73;;;1.00;99.90;;;;;;10134802;28;20019;-68
2022/12/14 14:49:40;;;;;;;18.33;9.60;;;1.00;99.90;;;;;;10129308;28;20336;-71
2022/12/14 14:54:31;;;;;;;17.10;8.20;;;1.00;99.90;;;;;;10135034;28;20040;-71
2022/12/14 14:59:21;;;;;;;18.08;8.02;;;0.90;99.90;;;;;;10118572;28;20457;-69
2022/12/14 15:04:14;;;;;;;16.77;7.28;;;0.90;99.90;;;;;;10123706;28;20029;-66
2022/12/14 15:09:28;;;;;;;18.20;7.00;;;1.00;99.90;;;;;;10120377;28;20060;-70
2022/12/14 15:14:39;;;;;;;15.75;6.75;;;1.00;99.90;;;;;;10139607;28;20035;-72
2022/12/14 15:19:35;;;;;;;20.27;7.05;;;1.00;99.90;;;;;;10112128;28;20616;-67
2022/12/14 15:24:26;;;;;;;11.68;5.65;;;1.00;99.90;;;;;;10116542;28;20032;-68
2022/12/14 15:29:23;;;;;;;18.63;6.82;;;1.10;99.90;;;;;;10124317;28;20021;-68
2022/12/14 15:34:16;;;;;;;16.58;6.68;;;1.10;99.90;;;;;;10133024;28;20221;-71
2022/12/14 15:39:31;;;;;;;20.85;7.93;;;1.10;99.90;;;;;;10131342;28;20029;-68
2022/12/14 15:44:22;;;;;;;16.70;6.97;;;1.00;99.90;;;;;;10128962;28;20419;-73
2022/12/14 15:49:21;;;;;;;17.50;8.07;;;1.00;99.90;;;;;;10131735;28;20099;-68
2022/12/14 15:54:18;;;;;;;16.20;7.28;;;1.00;99.90;;;;;;10119560;28;20048;-74
2022/12/14 15:59:24;;;;;;;18.50;6.50;;;1.10;99.90;;;;;;10129563;28;20123;-70
2022/12/14 16:04:20;;;;;;;19.53;7.53;;;1.00;99.90;;;;;;10132497;28;20186;-68
2022/12/14 16:09:22;;;;;;;17.27;6.88;;;1.00;99.90;;;;;;10136081;28;20423;-66
2022/12/14 16:14:37;;;;;;;17.60;6.68;;;0.90;99.90;;;;;;10134990;28;20086;-66
2022/12/14 16:19:32;;;;;;;13.27;6.20;;;1.10;99.90;;;;;;10135637;28;20185;-66
2022/12/14 16:24:24;;;;;;;12.45;5.05;;;1.10;99.90;;;;;;10135143;28;20025;-63
2022/12/14 16:29:21;;;;;;;16.23;5.72;;;1.10;99.90;;;;;;10134932;28;20032;-64
2022/12/14 16:34:19;;;;;;;10.60;5.50;;;1.20;99.90;;;;;;10116536;28;20036;-67
2022/12/14 16:39:21;;;;;;;12.77;5.63;;;1.10;99.90;;;;;;10134223;28;20549;-70
2022/12/14 16:44:29;;;;;;;14.10;5.75;;;1.00;99.90;;;;;;10132001;28;20025;-70
2022/12/14 16:49:31;;;;;;;13.05;5.07;;;1.00;99.90;;;;;;10132837;28;20031;-70
2022/12/14 16:54:26;;;;;;;15.73;5.97;;;0.90;99.90;;;;;;10131105;28;20036;-73
2022/12/14 16:59:25;;;;;;;13.38;6.15;;;0.90;99.90;;;;;;10116564;28;20553;-67
2022/12/14 17:04:17;;;;;;;11.10;6.38;;;1.00;99.90;;;;;;10132774;28;20103;-70
2022/12/14 17:09:14;;;;;;;15.65;7.18;;;1.10;99.90;;;;;;10133513;28;20042;-69
2022/12/14 17:14:04;;;;;;;12.95;5.95;;;1.30;99.90;;;;;;10132141;28;20302;-72
2022/12/14 17:18:55;;;;;;;15.27;7.43;;;1.30;99.90;;;;;;10135089;28;20095;-70
2022/12/14 17:23:46;;;;;;;13.95;5.25;;;1.30;99.90;;;;;;10133922;28;20040;-71
2022/12/14 17:28:36;;;;;;;11.68;5.25;;;1.30;99.90;;;;;;10113969;28;20032;-68
2022/12/14 17:33:28;;;;;;;12.27;5.68;;;1.40;99.90;;;;;;10110227;28;20414;-66
2022/12/14 17:38:21;;;;;;;11.27;5.20;;;1.40;99.90;;;;;;10116294;28;20045;-66
2022/12/14 17:43:14;;;;;;;12.30;5.72;;;1.40;99.90;;;;;;10106537;28;20095;-69
2022/12/14 17:48:08;;;;;;;13.43;5.70;;;1.40;99.90;;;;;;10088596;28;20557;-73
2022/12/14 17:52:59;;;;;;;10.70;6.03;;;1.40;99.90;;;;;;10114421;28;20028;-73
2022/12/14 17:57:50;;;;;;;16.92;6.45;;;1.30;99.90;;;;;;10111534;28;20058;-71
2022/12/14 18:02:41;;;;;;;13.13;6.63;;;1.40;99.90;;;;;;10095302;28;20037;-67
2022/12/14 18:07:35;;;;;;;14.55;6.10;;;1.40;99.90;;;;;;10144888;28;20025;-65
2022/12/14 18:12:25;;;;;;;16.55;5.78;;;1.40;99.90;;;;;;10139542;28;20036;-70
2022/12/14 18:17:16;;;;;;;14.45;6.43;;;1.50;99.90;;;;;;10142600;28;20037;-68
2022/12/14 18:22:10;;;;;;;13.68;5.88;;;1.40;99.90;;;;;;10142491;28;20078;-67
2022/12/14 18:27:00;;;;;;;13.43;5.30;;;1.50;99.90;;;;;;10106646;28;20247;-69
2022/12/14 18:31:51;;;;;;;14.23;6.35;;;1.30;99.90;;;;;;10137969;28;20094;-67
2022/12/14 18:36:42;;;;;;;12.35;6.07;;;1.30;99.90;;;;;;10130710;28;20116;-67
2022/12/14 18:41:32;;;;;;;16.30;6.75;;;1.30;99.90;;;;;;10129935;28;20108;-70
2022/12/14 18:46:23;;;;;;;17.17;7.32;;;1.30;99.90;;;;;;10115164;28;20423;-69
2022/12/14 18:51:22;;;;;;;14.30;6.10;;;1.30;99.90;;;;;;10129736;28;20232;-68
2022/12/14 18:56:12;;;;;;;13.43;5.43;;;1.40;99.90;;;;;;10106653;28;20392;-68
2022/12/14 19:01:03;;;;;;;16.98;6.60;;;1.30;99.90;;;;;;10115165;28;20021;-68
2022/12/14 19:06:06;;;;;;;15.38;6.18;;;1.30;99.90;;;;;;10102472;28;20048;-68
2022/12/14 19:10:56;;;;;;;17.05;6.65;;;1.20;99.90;;;;;;10140828;28;20033;-68
2022/12/14 19:15:47;;;;;;;14.48;5.25;;;1.30;99.90;;;;;;10121638;28;20040;-69
2022/12/14 19:20:38;;;;;;;13.00;5.90;;;1.30;99.90;;;;;;10141547;28;20021;-70
2022/12/14 19:25:29;;;;;;;12.63;5.95;;;1.30;99.90;;;;;;10127311;28;20024;-70
2022/12/14 19:30:24;;;;;;;12.80;5.97;;;1.30;99.90;;;;;;10141260;28;20020;-70
2022/12/14 19:35:14;;;;;;;11.43;6.07;;;1.20;99.90;;;;;;10139650;28;20032;-69
2022/12/14 19:40:06;;;;;;;10.02;4.90;;;1.30;99.90;;;;;;10122475;28;20054;-68
2022/12/14 19:44:57;;;;;;;11.32;5.40;;;1.20;99.90;;;;;;10139965;28;20286;-68
2022/12/14 19:49:47;;;;;;;12.20;5.95;;;1.10;99.90;;;;;;10140108;28;20025;-66
2022/12/14 19:54:38;;;;;;;12.10;5.25;;;1.10;99.90;;;;;;10139036;28;20395;-68
2022/12/14 19:59:29;;;;;;;15.02;6.72;;;1.10;99.90;;;;;;10138900;28;20087;-68
2022/12/14 20:04:20;;;;;;;10.00;5.25;;;1.20;99.90;;;;;;10130690;28;20456;-68
2022/12/14 20:09:14;;;;;;;9.15;4.15;;;1.00;99.90;;;;;;10134389;28;20055;-68
2022/12/14 20:14:04;;;;;;;12.38;5.38;;;0.90;99.90;;;;;;10136759;28;20128;-69
2022/12/14 20:18:56;;;;;;;11.80;5.07;;;0.90;99.90;;;;;;10138529;28;20112;-66
2022/12/14 20:23:48;;;;;;;11.25;5.95;;;0.90;99.90;;;;;;10137892;28;20032;-69
2022/12/14 20:28:39;;;;;;;13.25;6.15;;;1.00;99.90;;;;;;10138466;28;20028;-67
2022/12/14 20:33:29;;;;;;;14.43;6.15;;;1.00;99.90;;;;;;10139093;28;20036;-67
2022/12/14 20:38:20;;;;;;;13.50;6.28;;;1.10;99.90;;;;;;10138048;28;20040;-69
2022/12/14 20:43:11;;;;;;;13.63;6.15;;;1.20;99.90;;;;;;10137429;28;20032;-67
2022/12/14 20:48:02;;;;;;;14.02;5.40;;;1.10;99.90;;;;;;10137070;28;20039;-68
2022/12/14 20:52:52;;;;;;;11.82;5.80;;;1.00;99.90;;;;;;10121090;28;20184;-67
2022/12/14 20:57:43;;;;;;;14.50;6.38;;;1.00;99.90;;;;;;10136795;28;20048;-67
2022/12/14 21:02:33;;;;;;;15.15;6.75;;;1.00;99.90;;;;;;10124472;28;20123;-68
2022/12/14 21:07:24;;;;;;;12.07;5.68;;;1.00;99.90;;;;;;10129009;28;20382;-68
2022/12/14 21:12:21;;;;;;;16.52;6.38;;;1.00;99.90;;;;;;10134170;28;20052;-66
2022/12/14 21:17:13;;;;;;;12.88;6.20;;;1.00;99.90;;;;;;10134203;28;20041;-68
2022/12/14 21:22:05;;;;;;;17.48;7.38;;;1.00;99.90;;;;;;10135851;28;20028;-69
2022/12/14 21:26:55;;;;;;;14.88;6.57;;;1.00;99.90;;;;;;10136088;28;20515;-67
2022/12/14 21:31:47;;;;;;;13.68;5.68;;;0.90;99.90;;;;;;10122434;28;20029;-66
2022/12/14 21:36:37;;;;;;;12.15;5.97;;;0.90;99.90;;;;;;10112944;28;20430;-65
2022/12/14 21:46:38;;;;;;;10.80;5.32;;;0.90;99.90;;;;;;10123956;28;20095;-66
2022/12/14 21:51:28;;;;;;;18.10;7.28;;;0.80;99.90;;;;;;10123505;28;20071;-70
2022/12/14 22:01:28;;;;;;;15.57;6.75;;;0.80;99.90;;;;;;10112229;28;20117;-67
2022/12/14 22:06:19;;;;;;;18.48;7.72;;;0.80;99.90;;;;;;10137888;28;20524;-68
2022/12/14 22:11:09;;;;;;;16.33;7.93;;;0.80;99.90;;;;;;10142748;28;20116;-68
2022/12/14 22:16:04;;;;;;;12.73;5.85;;;0.80;99.90;;;;;;10141524;28;20066;-67
2022/12/14 22:21:02;;;;;;;15.40;7.25;;;0.80;99.90;;;;;;10142137;28;20089;-69
2022/12/14 22:25:52;;;;;;;16.85;6.80;;;0.80;99.90;;;;;;10137510;28;20036;-67
2022/12/14 22:30:43;;;;;;;15.35;6.45;;;0.70;99.90;;;;;;10145672;28;20012;-65
2022/12/14 22:35:33;;;;;;;15.65;7.22;;;0.80;99.90;;;;;;10145075;28;20498;-66
2022/12/14 22:40:24;;;;;;;16.45;6.68;;;0.70;99.90;;;;;;10141910;28;20035;-68
2022/12/14 22:45:15;;;;;;;12.40;5.78;;;0.70;99.90;;;;;;10122979;28;20539;-68
2022/12/14 22:50:06;;;;;;;16.70;8.20;;;0.60;99.90;;;;;;10140941;28;20035;-67
2022/12/14 22:54:57;;;;;;;17.05;7.03;;;0.60;99.90;;;;;;10140673;28;20029;-68
2022/12/14 22:59:56;;;;;;;15.30;7.40;;;0.70;99.90;;;;;;10144065;28;20139;-66
2022/12/14 23:04:48;;;;;;;14.50;6.28;;;0.70;99.90;;;;;;10140550;28;20098;-69
